Time;durP1;ratioP1;P1;durP2;ratioP2;P2;SDS_P1;SDS_P2;PMS_P1;PMS_P2;Temp;Humidity;BMP_temperature;BMP_pressure;BME280_temperature;BME280_humidity;BME280_pressure;Samples;Min_cycle;Max_cycle;Signal;HPM_P1;HPM_P2
2023/08/07 00:00:23;;;;;;;2.20;0.30;;;16.20;99.90;;;;;;5030164;28;20044;-86
2023/08/07 00:02:48;;;;;;;1.30;0.20;;;16.20;99.90;;;;;;5040102;28;20384;-87
2023/08/07 00:05:16;;;;;;;3.00;0.25;;;16.30;99.90;;;;;;5054449;28;20025;-86
2023/08/07 00:07:42;;;;;;;5.68;1.05;;;16.30;99.90;;;;;;5055645;28;20033;-84
2023/08/07 00:10:08;;;;;;;1.85;0.30;;;16.20;99.90;;;;;;5055601;28;20017;-85
2023/08/07 00:12:34;;;;;;;0.95;0.32;;;16.20;99.90;;;;;;5048493;28;20115;-85
2023/08/07 00:15:00;;;;;;;0.82;0.20;;;16.20;99.90;;;;;;5035429;28;20025;-85
2023/08/07 00:17:26;;;;;;;0.40;0.20;;;16.20;99.90;;;;;;5034242;28;20513;-86
2023/08/07 00:19:51;;;;;;;1.60;0.30;;;16.20;99.90;;;;;;5035784;28;20147;-86
2023/08/07 00:22:17;;;;;;;0.40;0.10;;;16.20;99.90;;;;;;5035656;28;20540;-85
2023/08/07 00:24:43;;;;;;;1.40;0.20;;;16.20;99.90;;;;;;5035697;28;20025;-85
2023/08/07 00:27:10;;;;;;;1.92;0.28;;;16.20;99.90;;;;;;5034418;28;20398;-85
2023/08/07 00:29:36;;;;;;;1.88;0.25;;;16.20;99.90;;;;;;5034846;28;20026;-83
2023/08/07 00:32:02;;;;;;;5.20;0.20;;;16.10;99.90;;;;;;5035236;28;20048;-84
2023/08/07 00:34:29;;;;;;;2.28;0.20;;;16.10;99.90;;;;;;5034748;28;20029;-86
2023/08/07 00:36:55;;;;;;;0.38;0.20;;;16.10;99.90;;;;;;5034835;28;20100;-85
2023/08/07 00:39:21;;;;;;;0.10;0.10;;;16.00;99.90;;;;;;5034656;28;20104;-85
2023/08/07 00:41:46;;;;;;;1.33;0.20;;;16.00;99.90;;;;;;5033859;28;20447;-85
2023/08/07 00:44:12;;;;;;;3.30;0.20;;;15.90;99.90;;;;;;5034087;28;20124;-85
2023/08/07 00:46:41;;;;;;;1.13;0.20;;;15.90;99.90;;;;;;5034192;28;20026;-85
2023/08/07 00:49:08;;;;;;;1.77;0.10;;;15.90;99.90;;;;;;5035156;28;20055;-85
2023/08/07 00:51:35;;;;;;;3.83;0.25;;;15.90;99.90;;;;;;5033773;28;20041;-85
2023/08/07 00:54:03;;;;;;;0.10;0.10;;;15.90;99.90;;;;;;5034881;28;20025;-86
2023/08/07 00:56:30;;;;;;;1.40;0.20;;;15.90;99.90;;;;;;5035097;28;20439;-85
2023/08/07 00:58:55;;;;;;;3.05;0.17;;;15.90;99.90;;;;;;5033947;28;20115;-86
2023/08/07 01:01:21;;;;;;;2.13;0.30;;;15.90;99.90;;;;;;5034103;28;20064;-85
2023/08/07 01:03:47;;;;;;;0.88;0.10;;;15.90;99.90;;;;;;5033642;28;20493;-86
2023/08/07 01:06:12;;;;;;;0.25;0.10;;;15.80;99.90;;;;;;5034771;28;20099;-86
2023/08/07 01:08:38;;;;;;;2.85;0.10;;;15.80;99.90;;;;;;5034851;28;20033;-85
2023/08/07 01:11:54;;;;;;;0.57;0.10;;;15.80;99.90;;;;;;5034095;28;20060;-86
2023/08/07 01:14:36;;;;;;;0.82;0.35;;;15.80;99.90;;;;;;5034093;28;20175;-88
2023/08/07 01:17:07;;;;;;;1.75;0.10;;;15.70;99.90;;;;;;5034596;28;20026;-85
2023/08/07 01:19:34;;;;;;;1.27;0.17;;;15.60;99.90;;;;;;5048201;28;20032;-86
2023/08/07 01:22:10;;;;;;;1.23;0.15;;;15.60;99.90;;;;;;5054515;28;20025;-87
2023/08/07 01:24:36;;;;;;;;;;;15.60;99.90;;;;;;5055027;28;20044;-88
2023/08/07 01:27:43;;;;;;;0.10;0.10;;;15.50;99.90;;;;;;5054336;28;20369;-88
2023/08/07 01:30:33;;;;;;;0.97;0.10;;;15.50;99.90;;;;;;5045552;28;20091;-88
2023/08/07 01:33:15;;;;;;;0.77;0.10;;;15.50;99.90;;;;;;5052759;28;20368;-86
2023/08/07 01:35:46;;;;;;;3.47;0.10;;;15.40;99.90;;;;;;5052550;28;20436;-87
2023/08/07 01:38:13;;;;;;;0.10;0.10;;;15.40;99.90;;;;;;5052757;28;20029;-86
2023/08/07 01:40:40;;;;;;;0.17;0.10;;;15.40;99.90;;;;;;5053346;28;20079;-84
2023/08/07 01:43:06;;;;;;;4.20;0.10;;;15.40;99.90;;;;;;5053104;28;20068;-87
2023/08/07 01:45:31;;;;;;;0.88;0.10;;;15.40;99.90;;;;;;5051993;28;20059;-86
2023/08/07 01:47:57;;;;;;;1.75;0.20;;;15.40;99.90;;;;;;5052743;28;20078;-87
2023/08/07 01:50:24;;;;;;;1.20;0.10;;;15.30;99.90;;;;;;5053251;28;20024;-90
2023/08/07 01:52:50;;;;;;;0.57;0.10;;;15.30;99.90;;;;;;5054525;28;20041;-90
2023/08/07 01:55:17;;;;;;;0.65;0.15;;;15.30;99.90;;;;;;5053437;28;20525;-89
2023/08/07 01:57:43;;;;;;;0.20;0.10;;;15.20;99.90;;;;;;5053688;28;20090;-88
2023/08/07 02:00:09;;;;;;;2.83;0.20;;;15.20;99.90;;;;;;5053754;28;20025;-86
2023/08/07 02:02:35;;;;;;;0.25;0.15;;;15.20;99.90;;;;;;5053813;28;20104;-87
2023/08/07 02:05:01;;;;;;;0.47;0.10;;;15.20;99.90;;;;;;5052805;28;20029;-89
2023/08/07 02:07:27;;;;;;;0.10;0.10;;;15.20;99.90;;;;;;5051947;28;20112;-87
2023/08/07 02:09:53;;;;;;;2.08;0.10;;;15.20;99.90;;;;;;5052071;28;20047;-88
2023/08/07 02:12:18;;;;;;;0.90;0.10;;;15.10;99.90;;;;;;5052413;28;20053;-89
2023/08/07 02:14:44;;;;;;;2.30;0.13;;;15.10;99.90;;;;;;5053512;28;20021;-85
2023/08/07 02:17:09;;;;;;;0.65;0.10;;;15.10;99.90;;;;;;5051927;28;20056;-87
2023/08/07 02:19:35;;;;;;;0.38;0.10;;;15.00;99.90;;;;;;5041606;28;20016;-87
2023/08/07 02:22:02;;;;;;;0.43;0.10;;;14.90;99.90;;;;;;5052825;28;20035;-86
2023/08/07 02:24:27;;;;;;;1.10;0.10;;;14.90;99.90;;;;;;5052362;28;20096;-88
2023/08/07 02:26:53;;;;;;;0.20;0.05;;;14.90;99.90;;;;;;5050679;28;20476;-85
2023/08/07 02:29:19;;;;;;;3.50;0.15;;;14.90;99.90;;;;;;5052486;28;20025;-88
2023/08/07 02:31:44;;;;;;;2.67;0.10;;;14.90;99.90;;;;;;5041212;28;20117;-87
2023/08/07 02:34:10;;;;;;;0.40;0.10;;;14.90;99.90;;;;;;5033401;28;20485;-86
2023/08/07 02:36:36;;;;;;;0.80;0.10;;;14.90;99.90;;;;;;5033394;28;20496;-87
2023/08/07 02:39:02;;;;;;;2.28;0.10;;;14.90;99.90;;;;;;5031978;28;20033;-88
2023/08/07 02:41:28;;;;;;;2.15;0.10;;;14.90;99.90;;;;;;5032276;28;20067;-88
2023/08/07 02:43:53;;;;;;;2.30;0.10;;;14.90;99.90;;;;;;5032357;28;20037;-87
2023/08/07 02:46:19;;;;;;;0.55;0.10;;;14.80;99.90;;;;;;5031595;28;20025;-86
2023/08/07 02:48:45;;;;;;;1.08;0.10;;;14.80;99.90;;;;;;5031719;28;20033;-86
2023/08/07 02:51:10;;;;;;;0.88;0.10;;;14.80;99.90;;;;;;5034063;28;20022;-87
2023/08/07 02:53:36;;;;;;;4.20;0.10;;;14.70;99.90;;;;;;5033180;28;20539;-86
2023/08/07 02:56:02;;;;;;;0.20;0.20;;;14.70;99.90;;;;;;5031582;28;20036;-87
2023/08/07 02:58:27;;;;;;;1.45;0.10;;;14.70;99.90;;;;;;5031317;28;20520;-88
2023/08/07 03:00:53;;;;;;;4.30;0.10;;;14.60;99.90;;;;;;5034094;28;20486;-88
2023/08/07 03:03:19;;;;;;;1.27;0.10;;;14.60;99.90;;;;;;5032617;28;20031;-86
2023/08/07 03:05:49;;;;;;;0.40;0.20;;;14.50;99.90;;;;;;5031520;28;20517;-87
2023/08/07 03:08:15;;;;;;;1.17;0.10;;;14.50;99.90;;;;;;5031023;28;20025;-88
2023/08/07 03:10:41;;;;;;;1.17;0.10;;;14.50;99.90;;;;;;5031369;28;20034;-87
2023/08/07 03:13:06;;;;;;;1.48;0.13;;;14.50;99.90;;;;;;5032357;28;20417;-89
2023/08/07 03:15:32;;;;;;;1.25;0.15;;;14.50;99.90;;;;;;5032592;28;20112;-88
2023/08/07 03:17:58;;;;;;;1.17;0.10;;;14.50;99.90;;;;;;5031132;28;20025;-87
2023/08/07 03:20:23;;;;;;;0.20;0.10;;;14.50;99.90;;;;;;5030824;28;20026;-85
2023/08/07 03:22:49;;;;;;;0.75;0.10;;;14.50;99.90;;;;;;5032198;28;20060;-88
2023/08/07 03:25:15;;;;;;;0.22;0.10;;;14.50;99.90;;;;;;5032118;28;20033;-89
2023/08/07 03:27:40;;;;;;;0.85;0.20;;;14.50;99.90;;;;;;5031901;28;20455;-89
2023/08/07 03:30:06;;;;;;;1.80;0.10;;;14.50;99.90;;;;;;5031627;28;20029;-90
2023/08/07 03:32:32;;;;;;;1.95;0.13;;;14.50;99.90;;;;;;5032281;28;20041;-89
2023/08/07 03:34:58;;;;;;;0.10;0.10;;;14.50;99.90;;;;;;5032425;28;20071;-88
2023/08/07 03:37:24;;;;;;;3.95;0.10;;;14.50;99.90;;;;;;5032410;28;20026;-86
2023/08/07 03:39:50;;;;;;;0.50;0.10;;;14.50;99.90;;;;;;5032185;28;20119;-89
2023/08/07 03:42:15;;;;;;;0.10;0.10;;;14.50;99.90;;;;;;5031064;28;20517;-88
2023/08/07 03:44:41;;;;;;;0.52;0.17;;;14.50;99.90;;;;;;5032040;28;20032;-88
2023/08/07 03:47:07;;;;;;;0.10;0.10;;;14.50;99.90;;;;;;5031895;28;20104;-89
2023/08/07 03:49:32;;;;;;;5.97;0.15;;;14.60;99.90;;;;;;5041459;28;20169;-87
2023/08/07 03:51:59;;;;;;;0.28;0.13;;;14.60;99.90;;;;;;5030395;28;20041;-87
2023/08/07 03:54:25;;;;;;;0.25;0.10;;;14.60;99.90;;;;;;5031125;28;20036;-87
2023/08/07 03:56:51;;;;;;;0.85;0.10;;;14.60;99.90;;;;;;5030111;28;20033;-86
2023/08/07 03:59:17;;;;;;;0.90;0.10;;;14.60;99.90;;;;;;5031259;28;20025;-87
2023/08/07 04:01:43;;;;;;;0.70;0.20;;;14.70;99.90;;;;;;5031935;28;20487;-88
2023/08/07 04:04:08;;;;;;;2.53;0.10;;;14.70;99.90;;;;;;5032047;28;20072;-88
2023/08/07 04:06:34;;;;;;;2.85;0.10;;;14.70;99.90;;;;;;5031928;28;20394;-89
2023/08/07 04:08:59;;;;;;;1.77;0.10;;;14.80;99.90;;;;;;5031652;28;20025;-89
2023/08/07 04:11:26;;;;;;;;;;;14.80;99.90;;;;;;5029780;28;20573;-88
2023/08/07 04:13:52;;;;;;;0.10;0.10;;;14.80;99.90;;;;;;5029473;28;19925;-86
2023/08/07 04:16:17;;;;;;;0.10;0.10;;;14.80;99.90;;;;;;5040663;28;20037;-88
2023/08/07 04:18:43;;;;;;;0.15;0.10;;;14.90;99.90;;;;;;5051650;28;20064;-88
2023/08/07 04:21:08;;;;;;;0.20;0.20;;;14.90;99.90;;;;;;5051061;28;20056;-88
2023/08/07 04:23:34;;;;;;;0.85;0.10;;;15.00;99.90;;;;;;5050666;28;20151;-89
2023/08/07 04:26:00;;;;;;;0.10;0.10;;;15.10;99.90;;;;;;5051935;28;20060;-87
2023/08/07 04:28:28;;;;;;;0.25;0.10;;;15.10;99.90;;;;;;5039899;28;20195;-89
2023/08/07 04:30:54;;;;;;;0.10;0.10;;;15.20;99.90;;;;;;5036950;28;20029;-89
2023/08/07 04:33:20;;;;;;;0.35;0.17;;;15.20;99.90;;;;;;5049821;28;20049;-87
2023/08/07 04:35:46;;;;;;;1.92;0.17;;;15.30;99.90;;;;;;5036208;28;20237;-87
2023/08/07 04:38:13;;;;;;;1.92;0.32;;;15.30;99.90;;;;;;5032064;28;20401;-87
2023/08/07 04:40:44;;;;;;;0.20;0.10;;;15.40;99.90;;;;;;5034097;28;20064;-86
2023/08/07 04:43:10;;;;;;;0.98;0.10;;;15.60;99.90;;;;;;5029671;28;20033;-85
2023/08/07 04:45:38;;;;;;;0.20;0.10;;;15.60;99.90;;;;;;5028755;28;20045;-84
2023/08/07 04:48:03;;;;;;;0.52;0.10;;;15.70;99.90;;;;;;5032792;28;20022;-84
2023/08/07 04:50:29;;;;;;;0.20;0.10;;;15.80;99.90;;;;;;5035273;28;20551;-85
2023/08/07 04:52:55;;;;;;;2.58;0.17;;;15.80;99.90;;;;;;5033132;28;20517;-83
2023/08/07 04:55:20;;;;;;;0.30;0.10;;;15.90;99.90;;;;;;5035552;28;20051;-84
2023/08/07 04:57:46;;;;;;;3.03;0.20;;;16.10;99.90;;;;;;5044167;28;20413;-83
2023/08/07 05:00:13;;;;;;;0.40;0.20;;;16.10;99.90;;;;;;5039163;28;20022;-86
2023/08/07 05:02:39;;;;;;;0.35;0.20;;;16.20;99.90;;;;;;5038822;28;20013;-84
2023/08/07 05:05:05;;;;;;;0.80;0.20;;;16.20;99.90;;;;;;5042443;28;20041;-81
2023/08/07 05:07:34;;;;;;;0.25;0.10;;;16.20;99.90;;;;;;5046897;28;20021;-86
2023/08/07 05:10:02;;;;;;;0.17;0.10;;;16.20;99.90;;;;;;5038905;28;20489;-84
2023/08/07 05:12:28;;;;;;;0.80;0.10;;;16.10;99.90;;;;;;5050234;28;20049;-85
2023/08/07 05:14:54;;;;;;;2.25;0.10;;;16.00;99.90;;;;;;5052138;28;20052;-82
2023/08/07 05:17:19;;;;;;;0.30;0.10;;;15.90;99.90;;;;;;5050779;28;20087;-86
2023/08/07 05:19:45;;;;;;;2.40;0.20;;;15.80;99.90;;;;;;5051960;28;20028;-82
2023/08/07 05:22:10;;;;;;;0.28;0.10;;;15.80;99.90;;;;;;5053469;28;20048;-82
2023/08/07 05:24:38;;;;;;;2.65;0.10;;;15.80;99.90;;;;;;5051556;28;20039;-85
2023/08/07 05:27:08;;;;;;;0.30;0.10;;;15.90;99.90;;;;;;5051843;28;20024;-85
2023/08/07 05:29:42;;;;;;;1.00;0.20;;;16.10;99.90;;;;;;5052834;28;20104;-82
2023/08/07 05:32:08;;;;;;;0.35;0.10;;;16.20;99.90;;;;;;5051607;28;20132;-83
2023/08/07 05:34:34;;;;;;;1.27;0.10;;;16.30;99.90;;;;;;5052860;28;20068;-84
2023/08/07 05:37:00;;;;;;;0.90;0.57;;;16.50;99.90;;;;;;5051066;28;20059;-84
2023/08/07 05:39:25;;;;;;;0.57;0.10;;;16.70;99.90;;;;;;5052343;28;20124;-82
2023/08/07 05:41:53;;;;;;;0.30;0.10;;;17.00;99.90;;;;;;5051835;28;20071;-82
2023/08/07 05:44:19;;;;;;;0.75;0.20;;;17.20;99.90;;;;;;5051113;28;20029;-82
2023/08/07 05:46:44;;;;;;;0.47;0.20;;;17.40;99.90;;;;;;5051997;28;20029;-84
2023/08/07 05:49:10;;;;;;;0.47;0.10;;;17.60;99.90;;;;;;5052048;28;20036;-82
2023/08/07 05:51:36;;;;;;;2.58;0.10;;;17.80;99.90;;;;;;5051851;28;20486;-84
2023/08/07 05:54:01;;;;;;;0.22;0.10;;;17.80;99.90;;;;;;5046895;28;20132;-83
2023/08/07 05:56:27;;;;;;;2.70;0.10;;;17.90;99.90;;;;;;5050213;28;20064;-83
2023/08/07 05:58:53;;;;;;;2.05;0.10;;;18.00;99.90;;;;;;5051523;28;20063;-84
2023/08/07 06:01:18;;;;;;;1.00;0.10;;;18.30;99.90;;;;;;5049252;28;20028;-82
2023/08/07 06:03:44;;;;;;;0.95;0.10;;;18.40;99.90;;;;;;5044042;28;20037;-85
2023/08/07 06:06:09;;;;;;;0.32;0.10;;;18.60;99.90;;;;;;5045906;28;20057;-84
2023/08/07 06:08:35;;;;;;;0.60;0.10;;;19.00;99.90;;;;;;5052613;28;20036;-84
2023/08/07 06:11:03;;;;;;;0.10;0.10;;;19.20;98.70;;;;;;5051708;28;20096;-82
2023/08/07 06:13:29;;;;;;;0.15;0.10;;;19.10;98.70;;;;;;5050916;28;20113;-82
2023/08/07 06:15:55;;;;;;;2.65;0.20;;;19.50;98.40;;;;;;5050863;28;20068;-81
2023/08/07 06:18:20;;;;;;;0.40;0.20;;;20.10;95.10;;;;;;5051145;28;20554;-80
2023/08/07 06:20:46;;;;;;;0.15;0.15;;;20.30;93.50;;;;;;5047495;28;20052;-83
2023/08/07 06:23:12;;;;;;;0.17;0.17;;;20.10;92.70;;;;;;5038654;28;20033;-84
2023/08/07 06:25:39;;;;;;;0.30;0.10;;;19.80;93.10;;;;;;5046849;28;20046;-84
2023/08/07 06:28:05;;;;;;;1.50;0.10;;;19.50;93.60;;;;;;5031377;28;20021;-85
2023/08/07 06:30:33;;;;;;;1.65;0.10;;;19.20;94.60;;;;;;5030720;28;20490;-82
2023/08/07 06:32:59;;;;;;;1.40;0.57;;;18.90;95.40;;;;;;5034596;28;20090;-84
2023/08/07 06:35:25;;;;;;;3.22;0.20;;;18.60;96.90;;;;;;5051690;28;20029;-84
2023/08/07 06:37:50;;;;;;;0.20;0.10;;;18.60;97.10;;;;;;5050178;28;20021;-83
2023/08/07 06:40:16;;;;;;;2.08;0.10;;;18.80;97.90;;;;;;5052136;28;20037;-84
2023/08/07 06:42:41;;;;;;;2.92;0.17;;;18.90;96.40;;;;;;5036445;28;20025;-86
2023/08/07 06:45:07;;;;;;;1.85;0.20;;;19.00;96.60;;;;;;5042030;28;20020;-84
2023/08/07 06:47:33;;;;;;;0.32;0.20;;;19.00;95.80;;;;;;5050182;28;20029;-84
2023/08/07 06:49:59;;;;;;;1.08;0.20;;;19.00;95.70;;;;;;5049388;28;20056;-82
2023/08/07 06:52:24;;;;;;;1.30;0.40;;;19.00;96.10;;;;;;5048292;28;20029;-82
2023/08/07 06:54:50;;;;;;;2.05;0.20;;;19.20;95.30;;;;;;5047505;28;20057;-83
2023/08/07 06:57:16;;;;;;;0.32;0.20;;;19.70;94.20;;;;;;5041352;28;20628;-82
2023/08/07 06:59:41;;;;;;;5.90;0.20;;;20.70;92.80;;;;;;5048721;28;20032;-82
2023/08/07 07:02:07;;;;;;;0.20;0.20;;;21.70;88.00;;;;;;5049003;28;20409;-81
2023/08/07 07:04:33;;;;;;;2.50;0.20;;;22.40;83.20;;;;;;5047178;28;20029;-82
2023/08/07 07:06:58;;;;;;;0.73;0.20;;;23.10;77.10;;;;;;5037904;28;20025;-80
2023/08/07 07:09:24;;;;;;;1.80;0.20;;;23.60;73.70;;;;;;5038963;28;20505;-85
2023/08/07 07:11:50;;;;;;;0.77;0.43;;;23.90;72.30;;;;;;5037733;28;20739;-83
2023/08/07 07:14:16;;;;;;;0.68;0.25;;;24.50;69.60;;;;;;5037214;28;20065;-84
2023/08/07 07:16:42;;;;;;;1.13;0.30;;;24.70;66.00;;;;;;5030595;28;20075;-84
2023/08/07 07:19:09;;;;;;;1.48;0.55;;;24.30;65.30;;;;;;5030466;28;20060;-84
2023/08/07 07:21:35;;;;;;;0.68;0.40;;;23.70;66.30;;;;;;5042437;28;20051;-83
2023/08/07 07:24:02;;;;;;;2.15;0.38;;;23.30;67.00;;;;;;5031742;28;20033;-82
2023/08/07 07:26:28;;;;;;;0.20;0.20;;;22.90;67.80;;;;;;5049292;28;20565;-83
2023/08/07 07:28:53;;;;;;;1.70;0.32;;;22.30;69.90;;;;;;5048135;28;20111;-84
2023/08/07 07:31:19;;;;;;;0.85;0.30;;;21.80;72.30;;;;;;5040190;28;20134;-82
2023/08/07 07:33:46;;;;;;;3.13;0.30;;;21.50;74.10;;;;;;5050425;28;20440;-84
2023/08/07 07:36:21;;;;;;;2.00;0.30;;;21.40;74.70;;;;;;5048554;28;20028;-82
2023/08/07 07:38:47;;;;;;;2.20;0.30;;;21.70;75.40;;;;;;5048663;28;20036;-82
2023/08/07 07:41:17;;;;;;;4.50;0.38;;;22.30;71.30;;;;;;5049189;28;20031;-81
2023/08/07 07:43:43;;;;;;;0.40;0.20;;;23.20;69.60;;;;;;5041162;28;20052;-82
2023/08/07 07:46:08;;;;;;;4.55;0.30;;;23.50;65.70;;;;;;5034940;28;20068;-82
2023/08/07 07:48:34;;;;;;;0.95;0.30;;;23.30;64.60;;;;;;5041732;28;20112;-84
2023/08/07 07:51:04;;;;;;;0.68;0.30;;;22.90;65.20;;;;;;5031169;28;20104;-84
2023/08/07 07:53:30;;;;;;;2.50;0.20;;;22.40;67.70;;;;;;5032157;28;20045;-84
2023/08/07 07:55:56;;;;;;;0.63;0.38;;;21.80;69.90;;;;;;5033898;28;20026;-83
2023/08/07 07:58:22;;;;;;;3.17;0.30;;;21.20;72.90;;;;;;5034289;28;20052;-83
2023/08/07 08:00:48;;;;;;;0.60;0.30;;;20.70;75.10;;;;;;5031380;28;20036;-83
2023/08/07 08:03:13;;;;;;;0.60;0.38;;;20.40;77.70;;;;;;5032249;28;20112;-82
2023/08/07 08:05:39;;;;;;;1.45;0.30;;;20.10;78.50;;;;;;5038566;28;20630;-84
2023/08/07 08:08:08;;;;;;;1.45;0.40;;;20.00;79.20;;;;;;5050625;28;20056;-83
2023/08/07 08:10:34;;;;;;;0.63;0.30;;;19.90;79.10;;;;;;5050407;28;20025;-83
2023/08/07 08:12:59;;;;;;;1.00;0.30;;;19.90;80.10;;;;;;5041400;28;20059;-83
2023/08/07 08:15:25;;;;;;;1.67;0.35;;;20.00;81.40;;;;;;5030692;28;20025;-82
2023/08/07 08:17:51;;;;;;;0.82;0.38;;;20.50;82.70;;;;;;5029207;28;20498;-83
2023/08/07 08:20:18;;;;;;;2.25;0.30;;;21.00;80.20;;;;;;5028221;28;20030;-84
2023/08/07 08:22:44;;;;;;;4.97;0.40;;;21.20;76.20;;;;;;5028539;28;20041;-83
2023/08/07 08:25:11;;;;;;;2.92;0.40;;;21.20;75.50;;;;;;5038306;28;20032;-82
2023/08/07 08:27:38;;;;;;;0.80;0.40;;;21.00;76.50;;;;;;5034246;28;20448;-82
2023/08/07 08:30:04;;;;;;;0.57;0.30;;;20.90;76.10;;;;;;5033423;28;20494;-83
2023/08/07 08:32:30;;;;;;;0.40;0.20;;;20.60;77.50;;;;;;5038238;28;20115;-81
2023/08/07 08:34:55;;;;;;;0.77;0.30;;;20.30;78.50;;;;;;5041245;28;20104;-83
2023/08/07 08:37:21;;;;;;;2.40;0.50;;;19.90;82.20;;;;;;5039548;28;20489;-83
2023/08/07 08:39:47;;;;;;;0.93;0.30;;;19.80;82.90;;;;;;5053505;28;20021;-81
2023/08/07 08:42:14;;;;;;;1.92;0.30;;;19.60;83.50;;;;;;5052214;28;20111;-83
2023/08/07 08:44:40;;;;;;;0.85;0.30;;;19.50;84.60;;;;;;5052499;28;20400;-83
2023/08/07 08:47:08;;;;;;;0.55;0.30;;;19.40;85.10;;;;;;5052948;28;20021;-83
2023/08/07 08:49:51;;;;;;;0.95;0.40;;;19.40;84.10;;;;;;5052121;28;20067;-81
2023/08/07 08:52:17;;;;;;;1.42;0.28;;;19.40;85.60;;;;;;5053180;28;20094;-82
2023/08/07 08:54:46;;;;;;;2.15;0.40;;;19.40;85.50;;;;;;5053328;28;20025;-81
2023/08/07 08:57:13;;;;;;;0.47;0.20;;;19.50;85.70;;;;;;5053187;28;20543;-82
2023/08/07 08:59:42;;;;;;;3.95;0.70;;;19.70;87.30;;;;;;5052974;28;20024;-82
2023/08/07 09:02:08;;;;;;;0.63;0.30;;;19.70;84.70;;;;;;5051560;28;20029;-82
2023/08/07 09:04:34;;;;;;;1.95;0.20;;;19.60;83.70;;;;;;5051978;28;20119;-82
2023/08/07 09:07:01;;;;;;;1.55;0.20;;;19.60;85.40;;;;;;5052917;28;20653;-82
2023/08/07 09:09:28;;;;;;;0.30;0.30;;;19.70;85.90;;;;;;5052030;28;20501;-82
2023/08/07 09:11:57;;;;;;;2.67;0.25;;;19.80;86.40;;;;;;5052341;28;20029;-81
2023/08/07 09:14:26;;;;;;;1.05;0.20;;;19.80;84.90;;;;;;5052465;28;20048;-83
2023/08/07 09:16:53;;;;;;;1.13;0.20;;;19.70;83.60;;;;;;5051267;28;20029;-83
2023/08/07 09:19:19;;;;;;;1.02;0.20;;;19.40;84.80;;;;;;5052867;28;20037;-83
2023/08/07 09:21:45;;;;;;;0.20;0.10;;;19.30;85.80;;;;;;5052184;28;20029;-83
2023/08/07 09:24:11;;;;;;;3.15;0.22;;;19.30;86.60;;;;;;5052704;28;20036;-83
2023/08/07 09:26:41;;;;;;;0.20;0.13;;;19.30;88.40;;;;;;5052956;28;20032;-82
2023/08/07 09:29:09;;;;;;;0.35;0.10;;;19.50;86.00;;;;;;5052444;28;20028;-84
2023/08/07 09:31:37;;;;;;;0.60;0.20;;;19.60;86.10;;;;;;5051962;28;20032;-83
2023/08/07 09:34:04;;;;;;;0.28;0.10;;;19.50;86.20;;;;;;5052589;28;20058;-83
2023/08/07 09:36:34;;;;;;;1.17;0.20;;;19.30;86.10;;;;;;5051285;28;20067;-83
2023/08/07 09:39:04;;;;;;;1.85;0.20;;;19.20;87.60;;;;;;5051410;28;20028;-83
2023/08/07 09:41:32;;;;;;;0.95;0.20;;;18.90;88.70;;;;;;5052360;28;20029;-83
2023/08/07 09:43:58;;;;;;;0.40;0.20;;;18.60;91.00;;;;;;5052070;28;20025;-85
2023/08/07 09:46:26;;;;;;;1.40;0.20;;;18.40;91.60;;;;;;5050580;28;20025;-84
2023/08/07 09:48:57;;;;;;;3.80;0.30;;;18.20;92.30;;;;;;5039631;28;20040;-83
2023/08/07 09:51:22;;;;;;;2.08;0.40;;;18.20;93.00;;;;;;5031876;28;20029;-84
2023/08/07 09:53:48;;;;;;;0.70;0.20;;;18.30;93.80;;;;;;5039900;28;20498;-85
2023/08/07 09:56:14;;;;;;;5.68;0.20;;;18.30;94.40;;;;;;5044621;28;20228;-84
2023/08/07 09:58:46;;;;;;;0.75;0.20;;;18.30;94.10;;;;;;5037133;28;20053;-83
2023/08/07 10:01:15;;;;;;;1.77;0.20;;;18.30;94.10;;;;;;5041961;28;20023;-85
2023/08/07 10:03:41;;;;;;;0.28;0.20;;;18.30;93.80;;;;;;5037049;28;20060;-83
2023/08/07 10:06:08;;;;;;;0.73;0.20;;;18.50;93.60;;;;;;5051722;28;20497;-84
2023/08/07 10:08:35;;;;;;;0.30;0.10;;;19.00;92.80;;;;;;5051780;28;20033;-83
2023/08/07 10:11:02;;;;;;;0.63;0.20;;;19.50;92.10;;;;;;5046382;28;20052;-82
2023/08/07 10:13:29;;;;;;;0.52;0.10;;;19.90;91.00;;;;;;5050786;28;20059;-83
2023/08/07 10:15:55;;;;;;;0.35;0.20;;;19.90;90.30;;;;;;5044137;28;20037;-82
2023/08/07 10:18:21;;;;;;;2.72;0.20;;;20.10;90.50;;;;;;5051286;28;20510;-83
2023/08/07 10:20:47;;;;;;;2.58;0.30;;;20.30;89.60;;;;;;5051258;28;20021;-81
2023/08/07 10:23:17;;;;;;;2.05;0.20;;;20.30;88.40;;;;;;5046690;28;20025;-82
2023/08/07 10:25:45;;;;;;;1.33;0.20;;;20.10;86.70;;;;;;5031365;28;20087;-82
2023/08/07 10:28:16;;;;;;;3.20;0.10;;;19.90;87.40;;;;;;5030904;28;20474;-83
2023/08/07 10:30:42;;;;;;;2.92;0.17;;;19.90;86.00;;;;;;5040857;28;20029;-83
2023/08/07 10:33:10;;;;;;;4.95;0.68;;;19.90;85.90;;;;;;5049893;28;20036;-82
2023/08/07 10:35:36;;;;;;;0.55;0.10;;;20.20;85.80;;;;;;5033169;28;20033;-81
2023/08/07 10:38:09;;;;;;;4.00;0.10;;;20.50;85.10;;;;;;5040488;28;20448;-81
2023/08/07 10:40:58;;;;;;;0.35;0.10;;;20.70;84.00;;;;;;5049709;28;20498;-83
2023/08/07 10:43:25;;;;;;;1.65;0.10;;;21.00;82.10;;;;;;5032395;28;20409;-83
2023/08/07 10:45:51;;;;;;;0.35;0.28;;;21.00;80.00;;;;;;5043882;28;20479;-83
2023/08/07 10:48:21;;;;;;;0.10;0.10;;;20.90;79.10;;;;;;5034244;28;20054;-83
2023/08/07 10:50:53;;;;;;;0.35;0.10;;;20.90;79.20;;;;;;5035679;28;20036;-83
2023/08/07 10:53:32;;;;;;;2.28;0.20;;;21.00;80.80;;;;;;5049306;28;20044;-83
2023/08/07 10:56:01;;;;;;;0.38;0.10;;;20.90;80.30;;;;;;5031338;28;20041;-82
2023/08/07 10:58:33;;;;;;;0.52;0.20;;;20.90;79.60;;;;;;5030564;28;20510;-83
2023/08/07 11:01:22;;;;;;;0.98;0.10;;;20.70;79.00;;;;;;5035898;28;20024;-81
2023/08/07 11:03:59;;;;;;;0.57;0.10;;;20.40;77.80;;;;;;5033338;28;20026;-82
2023/08/07 11:06:27;;;;;;;4.97;0.52;;;20.20;80.10;;;;;;5030543;28;20026;-82
2023/08/07 11:08:53;;;;;;;0.30;0.13;;;20.10;79.00;;;;;;5029708;28;20036;-85
2023/08/07 11:11:19;;;;;;;2.78;0.20;;;20.20;79.90;;;;;;5045230;28;20029;-83
2023/08/07 11:13:45;;;;;;;0.32;0.10;;;20.10;81.80;;;;;;5049246;28;20048;-85
2023/08/07 11:16:12;;;;;;;1.17;0.20;;;20.00;82.30;;;;;;5029906;28;20112;-84
2023/08/07 11:18:41;;;;;;;1.55;0.20;;;20.00;81.70;;;;;;5030130;28;20033;-83
2023/08/07 11:21:07;;;;;;;0.13;0.13;;;20.10;81.00;;;;;;5029789;28;20095;-82
2023/08/07 11:23:33;;;;;;;3.22;0.10;;;20.40;81.10;;;;;;5031242;28;20132;-83
2023/08/07 11:25:59;;;;;;;0.93;0.50;;;20.70;78.50;;;;;;5030134;28;20108;-81
2023/08/07 11:28:25;;;;;;;0.57;0.20;;;20.90;76.00;;;;;;5030066;28;20394;-83
2023/08/07 11:30:52;;;;;;;2.03;0.15;;;20.90;76.20;;;;;;5031129;28;20030;-82
2023/08/07 11:33:19;;;;;;;3.00;0.15;;;20.70;77.80;;;;;;5030749;28;20038;-83
2023/08/07 11:35:45;;;;;;;3.05;0.55;;;20.50;77.60;;;;;;5030078;28;20485;-82
2023/08/07 11:38:11;;;;;;;4.43;0.20;;;20.30;78.20;;;;;;5026867;28;20124;-83
2023/08/07 11:40:37;;;;;;;1.00;0.10;;;20.10;80.00;;;;;;5028805;28;20517;-84
2023/08/07 11:43:03;;;;;;;3.63;0.10;;;20.10;82.10;;;;;;5028854;28;20025;-82
2023/08/07 11:45:29;;;;;;;0.63;0.15;;;20.10;81.70;;;;;;5027685;28;20112;-84
2023/08/07 11:47:56;;;;;;;3.97;0.20;;;20.10;80.70;;;;;;5029046;28;20609;-83
2023/08/07 11:50:27;;;;;;;0.35;0.20;;;19.90;81.00;;;;;;5027407;28;20434;-84
2023/08/07 11:52:53;;;;;;;1.15;0.20;;;19.70;80.70;;;;;;5029401;28;20036;-83
2023/08/07 11:55:19;;;;;;;3.35;0.17;;;19.60;82.50;;;;;;5030200;28;20033;-84
2023/08/07 11:57:48;;;;;;;1.38;0.10;;;19.50;84.30;;;;;;5029576;28;20462;-83
2023/08/07 12:00:14;;;;;;;6.05;0.30;;;19.30;84.00;;;;;;5029500;28;20022;-83
2023/08/07 12:02:44;;;;;;;5.40;0.13;;;19.20;85.40;;;;;;5028763;28;20524;-84
2023/08/07 12:05:11;;;;;;;4.65;0.28;;;19.20;86.80;;;;;;5030175;28;20025;-83
2023/08/07 12:07:40;;;;;;;2.35;0.10;;;19.50;86.70;;;;;;5028435;28;20513;-84
2023/08/07 12:10:10;;;;;;;0.95;0.20;;;19.60;87.20;;;;;;5029927;28;20028;-84
2023/08/07 12:12:37;;;;;;;0.65;0.20;;;19.70;87.00;;;;;;5030470;28;20053;-82
2023/08/07 12:15:07;;;;;;;1.30;0.10;;;19.80;84.30;;;;;;5029848;28;20057;-84
2023/08/07 12:17:33;;;;;;;7.57;0.20;;;19.70;84.00;;;;;;5029295;28;20120;-82
2023/08/07 12:19:59;;;;;;;0.10;0.10;;;19.80;85.60;;;;;;5029576;28;20030;-82
2023/08/07 12:22:30;;;;;;;0.85;0.20;;;19.80;85.90;;;;;;5029955;28;20113;-84
2023/08/07 12:24:56;;;;;;;4.85;0.10;;;19.70;84.50;;;;;;5028422;28;20505;-83
2023/08/07 12:27:22;;;;;;;1.92;0.10;;;19.80;85.60;;;;;;5028498;28;20026;-83
2023/08/07 12:29:47;;;;;;;3.00;0.35;;;19.80;87.50;;;;;;5031952;28;20037;-84
2023/08/07 12:32:13;;;;;;;2.20;0.20;;;19.80;85.30;;;;;;5029617;28;20017;-84
2023/08/07 12:34:40;;;;;;;0.10;0.10;;;19.80;85.60;;;;;;5036244;28;20033;-85
2023/08/07 12:37:06;;;;;;;0.30;0.10;;;19.80;85.80;;;;;;5043997;28;20171;-85
2023/08/07 12:39:31;;;;;;;0.30;0.20;;;19.80;86.50;;;;;;5048567;28;20143;-85
2023/08/07 12:41:58;;;;;;;0.80;0.13;;;19.90;85.70;;;;;;5048164;28;20029;-85
2023/08/07 12:44:23;;;;;;;0.70;0.20;;;19.90;87.00;;;;;;5041069;28;20025;-85
2023/08/07 12:46:49;;;;;;;5.05;0.20;;;19.90;87.70;;;;;;5041042;28;20033;-83